createdAt,value
2022-12-31T00:01:50.180Z,33.53
2022-12-31T00:04:17.041Z,35.92
2022-12-31T00:06:43.885Z,33.25
2022-12-31T00:09:10.894Z,32.83
2022-12-31T00:11:38.453Z,33.55
2022-12-31T00:14:05.489Z,31.73
2022-12-31T00:16:36.554Z,32.72
2022-12-31T00:19:04.998Z,32.33
2022-12-31T00:21:33.501Z,32.47
2022-12-31T00:24:01.522Z,31.45
2022-12-31T00:26:30.872Z,32.03
2022-12-31T00:28:59.801Z,32.33
2022-12-31T00:31:32.296Z,31.08
2022-12-31T00:34:00.224Z,31.67
2022-12-31T00:36:32.592Z,32.75
2022-12-31T00:39:01.296Z,32.15
2022-12-31T00:41:29.021Z,31.25
2022-12-31T00:43:55.863Z,31.98
2022-12-31T00:46:23.358Z,32.80
2022-12-31T00:48:50.069Z,32.05
2022-12-31T00:51:19.382Z,33.20
2022-12-31T00:53:46.189Z,33.63
2022-12-31T00:56:22.112Z,31.67
2022-12-31T00:58:49.885Z,32.30
2022-12-31T01:01:19.384Z,32.42
2022-12-31T01:03:47.696Z,32.72
2022-12-31T01:06:15.131Z,32.47
2022-12-31T01:08:41.793Z,31.83
2022-12-31T01:11:20.522Z,31.98
2022-12-31T01:13:58.252Z,32.08
2022-12-31T01:16:38.952Z,30.13
2022-12-31T01:19:10.139Z,31.35
2022-12-31T01:21:38.540Z,31.88
2022-12-31T01:24:05.689Z,32.17
2022-12-31T01:26:32.767Z,32.35
2022-12-31T01:28:59.578Z,33.03
2022-12-31T01:31:27.080Z,32.97
2022-12-31T01:33:54.523Z,31.42
2022-12-31T01:36:26.261Z,33.10
2022-12-31T01:38:54.922Z,32.00
2022-12-31T01:41:28.398Z,32.60
2022-12-31T01:44:16.803Z,30.60
2022-12-31T01:46:53.542Z,31.48
2022-12-31T01:49:30.942Z,31.98
2022-12-31T01:52:08.677Z,31.80
2022-12-31T01:54:40.760Z,33.45
2022-12-31T01:57:09.084Z,32.47
2022-12-31T01:59:36.366Z,31.25
2022-12-31T02:02:04.374Z,31.13
2022-12-31T02:04:31.681Z,32.40
2022-12-31T02:07:04.928Z,32.30
2022-12-31T02:09:32.570Z,31.80
2022-12-31T02:12:00.110Z,31.88
2022-12-31T02:14:34.016Z,30.63
2022-12-31T02:17:15.978Z,30.65
2022-12-31T02:20:03.671Z,33.15
2022-12-31T02:22:45.454Z,30.88
2022-12-31T02:25:49.217Z,30.75
2022-12-31T02:28:54.938Z,30.10
2022-12-31T02:31:30.836Z,31.73
2022-12-31T02:34:02.487Z,33.08
2022-12-31T02:36:34.655Z,32.47
2022-12-31T02:39:04.202Z,30.65
2022-12-31T02:41:49.872Z,30.63
2022-12-31T02:44:28.953Z,31.23
2022-12-31T02:46:58.990Z,31.05
2022-12-31T02:49:58.343Z,31.08
2022-12-31T02:52:45.364Z,31.67
2022-12-31T02:55:21.117Z,29.73
2022-12-31T02:58:13.885Z,31.08
2022-12-31T03:01:09.718Z,32.10
2022-12-31T03:03:37.946Z,30.20
2022-12-31T03:06:06.215Z,30.90
2022-12-31T03:08:52.931Z,30.20
2022-12-31T03:11:39.569Z,30.80
2022-12-31T03:14:06.487Z,31.27
2022-12-31T03:16:34.881Z,30.90
2022-12-31T03:19:20.386Z,32.53
2022-12-31T03:22:05.970Z,30.25
2022-12-31T03:24:51.341Z,31.48
2022-12-31T03:27:18.025Z,31.38
2022-12-31T03:29:44.770Z,30.58
2022-12-31T03:32:11.600Z,30.52
2022-12-31T03:34:38.301Z,29.98
2022-12-31T03:37:04.997Z,31.80
2022-12-31T03:39:31.809Z,31.45
2022-12-31T03:41:58.521Z,30.92
2022-12-31T03:44:25.251Z,30.90
2022-12-31T03:46:52.221Z,29.52
2022-12-31T03:49:18.971Z,30.83
2022-12-31T03:51:45.626Z,30.08
2022-12-31T03:54:12.442Z,30.90
2022-12-31T03:56:39.248Z,30.20
2022-12-31T03:59:05.929Z,30.05
2022-12-31T04:01:32.893Z,29.70
2022-12-31T04:03:59.791Z,28.25
2022-12-31T04:06:27.231Z,29.45
2022-12-31T04:08:53.995Z,30.02
2022-12-31T04:11:21.266Z,27.63
2022-12-31T04:13:48.074Z,29.40
2022-12-31T04:16:15.077Z,29.25
2022-12-31T04:18:41.857Z,27.92
2022-12-31T04:21:08.677Z,28.05
2022-12-31T04:23:35.491Z,28.80
2022-12-31T04:26:02.175Z,27.42
2022-12-31T04:28:28.840Z,28.98
2022-12-31T04:30:55.577Z,27.35
2022-12-31T04:33:24.954Z,29.38
2022-12-31T04:35:51.644Z,27.35
2022-12-31T04:38:18.421Z,28.85
2022-12-31T04:41:04.113Z,28.13
2022-12-31T04:43:30.893Z,28.60
2022-12-31T04:45:57.768Z,27.60
2022-12-31T04:48:24.593Z,29.55
2022-12-31T04:50:51.539Z,28.95
2022-12-31T04:53:18.225Z,29.52
2022-12-31T04:55:46.047Z,29.33
2022-12-31T04:58:12.900Z,29.15
2022-12-31T05:00:39.625Z,29.58
2022-12-31T05:03:06.478Z,28.38
2022-12-31T05:05:33.281Z,30.05
2022-12-31T05:07:59.949Z,28.00
2022-12-31T05:10:26.817Z,27.52
2022-12-31T05:12:53.616Z,29.83
2022-12-31T05:15:20.381Z,28.35
2022-12-31T05:17:47.101Z,29.60
2022-12-31T05:20:13.841Z,26.83
2022-12-31T05:22:40.596Z,27.35
2022-12-31T05:25:07.848Z,27.48
2022-12-31T05:27:35.174Z,27.60
2022-12-31T05:30:01.953Z,27.73
2022-12-31T05:32:28.651Z,28.63
2022-12-31T05:34:55.827Z,29.08
2022-12-31T05:37:22.757Z,27.58
2022-12-31T05:39:49.554Z,28.40
2022-12-31T05:42:16.263Z,29.60
2022-12-31T05:44:43.102Z,29.75
2022-12-31T05:47:09.976Z,27.63
2022-12-31T05:49:36.797Z,28.17
2022-12-31T05:52:03.629Z,29.48
2022-12-31T05:54:30.406Z,29.83
2022-12-31T05:56:57.281Z,27.83
2022-12-31T05:59:24.188Z,27.38
2022-12-31T06:01:51.081Z,29.02
2022-12-31T06:04:18.762Z,27.63
2022-12-31T06:06:45.429Z,27.60
2022-12-31T06:09:12.319Z,27.38
2022-12-31T06:11:39.306Z,27.02
2022-12-31T06:14:06.100Z,28.17
2022-12-31T06:16:32.845Z,27.30
2022-12-31T06:18:59.614Z,28.77
2022-12-31T06:21:26.308Z,29.77
2022-12-31T06:23:53.060Z,27.63
2022-12-31T06:26:19.983Z,26.38
2022-12-31T06:28:46.771Z,26.67
2022-12-31T06:31:15.163Z,27.67
2022-12-31T06:33:42.547Z,26.55
2022-12-31T06:36:13.280Z,26.85
2022-12-31T06:38:41.417Z,26.67
2022-12-31T06:41:10.640Z,25.67
2022-12-31T06:43:38.704Z,27.67
2022-12-31T06:46:07.751Z,27.67
2022-12-31T06:48:35.010Z,27.65
2022-12-31T06:51:16.596Z,25.70
2022-12-31T06:53:45.157Z,26.33
2022-12-31T06:56:26.490Z,26.25
2022-12-31T06:58:56.889Z,26.38
2022-12-31T07:01:41.617Z,26.40
2022-12-31T07:04:36.389Z,26.45
2022-12-31T07:07:11.895Z,26.30
2022-12-31T07:09:48.954Z,27.08
2022-12-31T07:12:24.975Z,25.20
2022-12-31T07:15:20.199Z,24.25
2022-12-31T07:17:56.854Z,28.08
2022-12-31T07:20:23.979Z,26.17
2022-12-31T07:22:51.007Z,25.05
2022-12-31T07:25:18.968Z,25.20
2022-12-31T07:28:22.506Z,26.55
2022-12-31T07:31:06.800Z,25.92
2022-12-31T07:34:01.890Z,25.25
2022-12-31T07:36:55.976Z,24.65
2022-12-31T07:39:38.400Z,25.75
2022-12-31T07:42:11.204Z,25.92
2022-12-31T07:44:42.392Z,24.92
2022-12-31T07:47:22.868Z,24.75
2022-12-31T07:49:50.303Z,25.67
2022-12-31T07:52:17.939Z,24.35
2022-12-31T07:54:44.684Z,24.88
2022-12-31T07:57:13.828Z,26.23
2022-12-31T08:00:01.671Z,24.77
2022-12-31T08:03:01.944Z,25.25
2022-12-31T08:05:48.514Z,26.55
2022-12-31T08:08:36.350Z,24.33
2022-12-31T08:11:15.020Z,25.23
2022-12-31T08:13:43.349Z,25.88
2022-12-31T08:16:12.371Z,27.02
2022-12-31T08:18:39.915Z,26.80
2022-12-31T08:21:35.039Z,25.30
2022-12-31T08:24:23.246Z,25.33
2022-12-31T08:27:28.314Z,25.45
2022-12-31T08:30:00.650Z,25.58
2022-12-31T08:32:53.139Z,24.77
2022-12-31T08:35:54.809Z,24.30
2022-12-31T08:38:47.749Z,26.42
2022-12-31T08:41:20.400Z,26.38
2022-12-31T08:44:15.337Z,25.35
2022-12-31T08:47:19.641Z,27.35
2022-12-31T08:49:46.847Z,25.70
2022-12-31T08:52:20.033Z,24.33
2022-12-31T08:54:46.976Z,25.45
2022-12-31T08:57:33.862Z,25.85
2022-12-31T09:00:12.125Z,25.38
2022-12-31T09:02:53.745Z,24.23
2022-12-31T09:05:45.782Z,25.20
2022-12-31T09:08:33.352Z,23.83
2022-12-31T09:11:03.157Z,24.58
2022-12-31T09:13:52.926Z,26.08
2022-12-31T09:16:30.405Z,24.35
2022-12-31T09:18:57.149Z,24.63
2022-12-31T09:21:24.454Z,24.67
2022-12-31T09:23:51.343Z,24.52
2022-12-31T09:26:30.192Z,22.92
2022-12-31T09:29:22.242Z,23.30
2022-12-31T09:32:20.155Z,25.17
2022-12-31T09:35:07.318Z,23.98
2022-12-31T09:37:48.586Z,24.35
2022-12-31T09:40:39.767Z,24.15
2022-12-31T09:43:28.101Z,24.45
2022-12-31T09:46:09.941Z,23.95
2022-12-31T09:49:10.689Z,25.00
2022-12-31T09:52:02.031Z,25.02
2022-12-31T09:54:40.234Z,24.63
2022-12-31T09:57:45.903Z,24.98
2022-12-31T10:00:16.065Z,24.77
2022-12-31T10:03:07.356Z,25.75
2022-12-31T10:05:59.535Z,23.63
2022-12-31T10:08:40.678Z,24.00
2022-12-31T10:11:32.171Z,22.77
2022-12-31T10:14:19.176Z,23.38
2022-12-31T10:17:01.208Z,23.48
2022-12-31T10:19:46.149Z,23.77
2022-12-31T10:22:15.875Z,23.58
2022-12-31T10:24:45.569Z,23.02
2022-12-31T10:27:34.140Z,24.98
2022-12-31T10:30:17.546Z,24.13
2022-12-31T10:33:00.322Z,24.30
2022-12-31T10:35:57.128Z,24.95
2022-12-31T10:38:51.199Z,24.25
2022-12-31T10:41:55.768Z,25.88
2022-12-31T10:44:40.939Z,25.52
2022-12-31T10:47:18.742Z,25.17
2022-12-31T10:49:48.815Z,24.23
2022-12-31T10:52:53.248Z,23.38
2022-12-31T10:55:52.419Z,25.15
2022-12-31T10:58:45.464Z,23.70
2022-12-31T11:01:30.574Z,24.48
2022-12-31T11:04:34.893Z,24.07
2022-12-31T11:07:16.924Z,24.40
2022-12-31T11:10:09.029Z,24.83
2022-12-31T11:12:56.794Z,24.65
2022-12-31T11:15:53.791Z,25.25
2022-12-31T11:18:35.381Z,22.27
2022-12-31T11:21:13.705Z,22.85
2022-12-31T11:23:55.355Z,21.50
2022-12-31T11:26:34.864Z,21.25
2022-12-31T11:29:13.565Z,21.85
2022-12-31T11:32:06.350Z,21.58
2022-12-31T11:34:51.028Z,23.27
2022-12-31T11:37:39.572Z,22.67
2022-12-31T11:40:12.186Z,22.52
2022-12-31T11:42:52.084Z,23.08
2022-12-31T11:45:45.650Z,22.35
2022-12-31T11:48:39.340Z,21.63
2022-12-31T11:51:14.901Z,23.65
2022-12-31T11:53:57.506Z,22.85
2022-12-31T11:56:28.355Z,23.17
2022-12-31T11:58:56.473Z,22.27
2022-12-31T12:01:36.273Z,22.58
2022-12-31T12:04:03.582Z,22.92
2022-12-31T12:06:33.622Z,23.08
2022-12-31T12:09:05.717Z,23.52
2022-12-31T12:11:37.360Z,23.25
2022-12-31T12:14:32.265Z,23.27
2022-12-31T12:17:04.640Z,22.17
2022-12-31T12:19:34.037Z,21.67
2022-12-31T12:22:14.259Z,22.60
2022-12-31T12:24:51.701Z,21.83
2022-12-31T12:27:24.609Z,21.10
2022-12-31T12:29:51.419Z,21.00
2022-12-31T12:32:22.352Z,21.42
2022-12-31T12:34:50.119Z,21.30
2022-12-31T12:37:34.388Z,20.42
2022-12-31T12:40:04.308Z,21.13
2022-12-31T12:42:31.891Z,21.73
2022-12-31T12:45:23.345Z,24.38
2022-12-31T12:48:02.134Z,24.42
2022-12-31T12:50:41.567Z,24.90
2022-12-31T12:53:14.239Z,24.30
2022-12-31T12:55:47.534Z,24.48
2022-12-31T12:58:26.001Z,24.48
2022-12-31T13:01:23.835Z,23.23
2022-12-31T13:04:32.350Z,25.35
2022-12-31T13:07:40.711Z,25.33
2022-12-31T13:10:13.289Z,24.48
2022-12-31T13:13:23.314Z,23.55
2022-12-31T13:15:56.682Z,25.23
2022-12-31T13:18:50.107Z,24.50
2022-12-31T13:21:45.527Z,24.55
2022-12-31T13:24:30.661Z,24.30
2022-12-31T13:27:06.398Z,22.07
2022-12-31T13:29:35.846Z,20.75
2022-12-31T13:32:05.710Z,18.92
2022-12-31T13:34:38.550Z,20.95
2022-12-31T13:37:24.476Z,20.38
2022-12-31T13:40:07.614Z,22.23
2022-12-31T13:42:48.171Z,21.63
2022-12-31T13:45:24.483Z,21.90
2022-12-31T13:48:18.772Z,21.45
2022-12-31T13:50:57.639Z,20.63
2022-12-31T13:53:57.262Z,20.52
2022-12-31T13:56:29.304Z,20.67
2022-12-31T13:59:19.154Z,19.95
2022-12-31T14:02:10.015Z,21.45
2022-12-31T14:04:42.046Z,21.48
2022-12-31T14:07:18.193Z,21.27
2022-12-31T14:09:46.450Z,21.33
2022-12-31T14:12:33.171Z,20.55
2022-12-31T14:15:22.878Z,21.60
2022-12-31T14:18:25.737Z,21.42
2022-12-31T14:21:00.257Z,21.83
2022-12-31T14:23:36.060Z,21.05
2022-12-31T14:26:11.220Z,20.50
2022-12-31T14:28:49.395Z,21.83
2022-12-31T14:31:34.281Z,20.85
2022-12-31T14:34:12.932Z,19.52
2022-12-31T14:36:51.812Z,20.48
2022-12-31T14:39:42.913Z,19.58
2022-12-31T14:42:40.019Z,20.00
2022-12-31T14:45:35.664Z,18.00
2022-12-31T14:48:22.281Z,18.43
2022-12-31T14:50:49.510Z,18.48
2022-12-31T14:53:27.055Z,19.67
2022-12-31T14:56:04.062Z,19.95
2022-12-31T14:58:38.752Z,24.75
2022-12-31T15:01:26.475Z,25.20
2022-12-31T15:03:58.172Z,24.55
2022-12-31T15:06:43.533Z,25.23
2022-12-31T15:09:20.451Z,25.80
2022-12-31T15:12:19.902Z,25.45
2022-12-31T15:14:49.374Z,24.77
2022-12-31T15:17:42.537Z,24.70
2022-12-31T15:20:26.775Z,25.67
2022-12-31T15:22:54.715Z,24.92
2022-12-31T15:25:27.013Z,24.65
2022-12-31T15:27:54.468Z,26.23
2022-12-31T15:30:48.689Z,24.80
2022-12-31T15:33:32.291Z,24.50
2022-12-31T15:36:21.604Z,25.15
2022-12-31T15:38:49.724Z,27.20
2022-12-31T15:41:19.234Z,26.55
2022-12-31T15:44:01.102Z,29.17
2022-12-31T15:46:36.986Z,30.63
2022-12-31T15:49:15.583Z,29.95
2022-12-31T15:51:45.083Z,31.35
2022-12-31T15:54:37.060Z,32.55
2022-12-31T15:57:09.220Z,33.17
2022-12-31T15:59:38.195Z,33.00
2022-12-31T16:02:17.721Z,35.00
2022-12-31T16:04:44.855Z,33.63
2022-12-31T16:07:12.501Z,34.47
2022-12-31T16:09:40.189Z,35.17
2022-12-31T16:12:19.088Z,34.83
2022-12-31T16:14:51.654Z,35.10
2022-12-31T16:17:36.041Z,41.28
2022-12-31T16:20:24.493Z,41.42
2022-12-31T16:22:57.665Z,40.13
2022-12-31T16:25:33.744Z,38.13
2022-12-31T16:28:03.821Z,37.03
2022-12-31T16:30:32.278Z,36.70
2022-12-31T16:33:07.436Z,36.20
2022-12-31T16:35:37.520Z,36.28
2022-12-31T16:38:11.332Z,36.05
2022-12-31T16:40:38.867Z,37.58
2022-12-31T16:43:24.125Z,36.30
2022-12-31T16:45:51.121Z,36.00
2022-12-31T16:48:19.655Z,37.85
2022-12-31T16:50:49.366Z,36.05
2022-12-31T16:53:20.924Z,34.75
2022-12-31T16:55:54.816Z,37.15
2022-12-31T16:58:31.540Z,34.53
2022-12-31T17:01:06.878Z,34.90
2022-12-31T17:03:34.808Z,34.50
2022-12-31T17:06:07.893Z,37.72
2022-12-31T17:08:54.786Z,36.78
2022-12-31T17:11:30.773Z,36.38
2022-12-31T17:14:22.975Z,36.42
2022-12-31T17:17:03.071Z,37.22
2022-12-31T17:19:39.284Z,36.97
2022-12-31T17:22:13.272Z,40.67
2022-12-31T17:24:40.377Z,40.25
2022-12-31T17:27:08.811Z,39.47
2022-12-31T17:29:35.925Z,39.45
2022-12-31T17:32:25.838Z,39.72
2022-12-31T17:34:52.671Z,38.63
2022-12-31T17:37:26.667Z,39.17
2022-12-31T17:40:17.052Z,40.80
2022-12-31T17:42:46.422Z,39.97
2022-12-31T17:45:20.578Z,42.33
2022-12-31T17:47:50.983Z,42.80
2022-12-31T17:50:24.367Z,43.22
2022-12-31T17:52:55.731Z,46.75
2022-12-31T17:55:22.809Z,47.85
2022-12-31T17:57:53.294Z,48.63
2022-12-31T18:00:23.892Z,48.42
2022-12-31T18:02:50.913Z,48.45
2022-12-31T18:05:20.815Z,49.53
2022-12-31T18:07:47.915Z,48.22
2022-12-31T18:10:16.510Z,47.22
2022-12-31T18:12:44.759Z,48.38
2022-12-31T18:15:19.442Z,47.97
2022-12-31T18:17:46.194Z,46.77
2022-12-31T18:20:13.515Z,43.85
2022-12-31T18:22:42.070Z,44.63
2022-12-31T18:25:19.974Z,40.72
2022-12-31T18:27:46.781Z,36.72
2022-12-31T18:30:16.521Z,36.65
2022-12-31T18:32:44.887Z,35.97
2022-12-31T18:35:40.614Z,34.92
2022-12-31T18:38:11.317Z,33.63
2022-12-31T18:40:42.533Z,33.03
2022-12-31T18:43:16.276Z,34.58
2022-12-31T18:45:43.446Z,35.22
2022-12-31T18:48:10.228Z,35.00
2022-12-31T18:50:37.479Z,33.78
2022-12-31T18:53:04.238Z,32.30
2022-12-31T18:55:40.216Z,35.08
2022-12-31T18:58:07.920Z,33.72
2022-12-31T19:00:35.670Z,33.60
2022-12-31T19:03:03.009Z,34.28
2022-12-31T19:05:32.409Z,36.20
2022-12-31T19:07:59.850Z,36.75
2022-12-31T19:10:27.888Z,39.22
2022-12-31T19:12:54.833Z,40.70
2022-12-31T19:15:29.919Z,40.53
2022-12-31T19:17:57.299Z,40.38
2022-12-31T19:20:24.205Z,41.03
2022-12-31T19:22:51.133Z,42.97
2022-12-31T19:25:24.602Z,47.47
2022-12-31T19:27:52.009Z,45.53
2022-12-31T19:30:27.430Z,49.70
2022-12-31T19:32:54.190Z,48.40
2022-12-31T19:35:21.962Z,56.30
2022-12-31T19:37:51.388Z,58.67
2022-12-31T19:40:22.516Z,58.00
2022-12-31T19:42:50.521Z,58.60
2022-12-31T19:45:26.785Z,55.50
2022-12-31T19:47:54.831Z,54.33
2022-12-31T19:50:24.450Z,53.88
2022-12-31T19:52:53.476Z,50.70
2022-12-31T19:55:22.479Z,48.70
2022-12-31T19:57:50.158Z,46.80
2022-12-31T20:00:18.519Z,47.25
2022-12-31T20:02:47.409Z,45.70
2022-12-31T20:05:16.393Z,42.35
2022-12-31T20:07:43.396Z,44.83
2022-12-31T20:10:10.944Z,44.17
2022-12-31T20:12:43.955Z,45.88
2022-12-31T20:15:11.371Z,45.72
2022-12-31T20:17:38.131Z,44.40
2022-12-31T20:20:06.870Z,43.83
2022-12-31T20:22:33.905Z,43.05
2022-12-31T20:25:00.700Z,44.85
2022-12-31T20:27:27.897Z,45.17
2022-12-31T20:29:54.629Z,48.17
2022-12-31T20:32:21.543Z,45.75
2022-12-31T20:34:48.443Z,45.80
2022-12-31T20:37:15.440Z,47.17
2022-12-31T20:39:42.836Z,47.85
2022-12-31T20:42:09.689Z,47.72
2022-12-31T20:44:36.508Z,46.20
2022-12-31T20:47:03.319Z,46.67
2022-12-31T20:49:52.551Z,46.45
2022-12-31T20:52:17.047Z,49.15
2022-12-31T20:54:43.699Z,47.20
2022-12-31T20:57:10.355Z,47.55
2022-12-31T20:59:37.119Z,46.20
2022-12-31T21:04:51.072Z,44.92
2022-12-31T21:07:17.958Z,48.08
2022-12-31T21:09:44.612Z,48.30
2022-12-31T21:12:30.685Z,50.85
2022-12-31T21:17:24.308Z,44.55
2022-12-31T21:19:51.463Z,46.75
2022-12-31T21:22:18.171Z,48.53
2022-12-31T21:24:44.840Z,45.92
2022-12-31T21:27:12.034Z,45.33
2022-12-31T21:29:55.751Z,44.67
2022-12-31T21:32:25.530Z,44.53
2022-12-31T21:35:14.959Z,46.35
2022-12-31T21:37:58.032Z,44.80
2022-12-31T21:40:25.781Z,43.97
2022-12-31T21:42:52.569Z,43.80
2022-12-31T21:45:19.211Z,43.55
2022-12-31T21:48:04.768Z,44.80
2022-12-31T21:50:32.293Z,44.85
2022-12-31T21:52:58.994Z,43.70
2022-12-31T21:55:44.182Z,43.15
2022-12-31T21:58:27.729Z,44.50
2022-12-31T22:01:15.137Z,48.75
2022-12-31T22:03:43.166Z,44.35
2022-12-31T22:06:20.423Z,47.25
2022-12-31T22:08:49.702Z,46.75
2022-12-31T22:11:17.873Z,46.17
2022-12-31T22:13:45.353Z,46.00
2022-12-31T22:16:13.174Z,44.53
2022-12-31T22:18:42.738Z,45.80
2022-12-31T22:21:18.192Z,52.00
2022-12-31T22:23:50.431Z,49.25
2022-12-31T22:26:18.872Z,46.17
2022-12-31T22:28:46.440Z,44.35
2022-12-31T22:31:18.572Z,43.42
2022-12-31T22:33:46.252Z,43.13
2022-12-31T22:36:15.629Z,43.67
2022-12-31T22:38:42.804Z,45.05
2022-12-31T22:41:12.126Z,44.90
2022-12-31T22:43:42.539Z,44.72
2022-12-31T22:46:19.449Z,45.03
2022-12-31T22:48:46.316Z,49.60
2022-12-31T22:51:14.388Z,47.83
2022-12-31T22:53:43.263Z,47.92
2022-12-31T22:56:12.228Z,51.03
2022-12-31T22:58:39.457Z,57.13
2022-12-31T23:01:09.033Z,66.78
2022-12-31T23:03:35.893Z,77.80
2022-12-31T23:06:02.686Z,78.63
2022-12-31T23:08:29.454Z,65.40
2022-12-31T23:11:02.740Z,59.97
2022-12-31T23:13:51.417Z,130.75
2022-12-31T23:16:38.106Z,137.38
2022-12-31T23:19:24.294Z,130.63
2022-12-31T23:24:36.798Z,93.53
2022-12-31T23:27:03.665Z,174.18
2022-12-31T23:29:30.495Z,161.15
2022-12-31T23:31:57.469Z,135.38
2022-12-31T23:34:24.200Z,150.93
2022-12-31T23:36:50.939Z,170.32
2022-12-31T23:39:17.722Z,165.15
2022-12-31T23:41:44.457Z,155.45
2022-12-31T23:44:14.376Z,154.13
2022-12-31T23:46:42.359Z,161.27
2022-12-31T23:49:09.149Z,174.25
2022-12-31T23:51:36.667Z,209.07
2022-12-31T23:54:04.383Z,192.73
2022-12-31T23:56:31.238Z,203.70
2022-12-31T23:58:59.238Z,202.88
